Time;durP1;ratioP1;P1;durP2;ratioP2;P2;SDS_P1;SDS_P2;PMS_P1;PMS_P2;Temp;Humidity;BMP_temperature;BMP_pressure;BME280_temperature;BME280_humidity;BME280_pressure;Samples;Min_cycle;Max_cycle;Signal;HPM_P1;HPM_P2
2021/06/04 00:01:24;;;;;;;8.48;5.90;;;19.50;60.50;;;;;;5085011;28;20052;-77
2021/06/04 00:03:50;;;;;;;7.88;6.18;;;19.50;60.60;;;;;;5074636;28;20192;-76
2021/06/04 00:06:16;;;;;;;7.07;6.03;;;19.40;60.80;;;;;;5069957;28;20483;-76
2021/06/04 00:08:42;;;;;;;9.52;7.10;;;19.40;61.00;;;;;;5052288;28;20047;-77
2021/06/04 00:11:13;;;;;;;8.00;5.60;;;19.40;60.70;;;;;;5075997;28;20052;-77
2021/06/04 00:13:43;;;;;;;7.53;6.72;;;19.40;61.00;;;;;;5072957;28;20738;-77
2021/06/04 00:16:19;;;;;;;8.77;6.45;;;19.30;61.30;;;;;;5080586;28;20132;-76
2021/06/04 00:18:46;;;;;;;7.72;5.90;;;19.30;61.40;;;;;;5077511;28;20040;-77
2021/06/04 00:21:18;;;;;;;7.63;6.63;;;19.40;61.10;;;;;;5083304;28;20031;-77
2021/06/04 00:23:45;;;;;;;6.30;5.13;;;19.30;61.40;;;;;;5079707;28;20486;-77
2021/06/04 00:26:13;;;;;;;7.68;5.65;;;19.30;61.70;;;;;;5080753;28;20100;-77
2021/06/04 00:28:39;;;;;;;6.45;5.28;;;19.30;61.40;;;;;;5078315;28;20025;-79
2021/06/04 00:31:05;;;;;;;6.05;5.43;;;19.20;61.40;;;;;;5081619;28;20020;-77
2021/06/04 00:33:31;;;;;;;9.15;6.85;;;19.30;61.40;;;;;;5074973;28;20044;-77
2021/06/04 00:35:58;;;;;;;7.20;6.50;;;19.20;61.70;;;;;;5080026;28;20027;-77
2021/06/04 00:38:23;;;;;;;7.88;6.78;;;19.20;61.30;;;;;;5073571;28;20037;-78
2021/06/04 00:40:54;;;;;;;6.38;5.70;;;19.10;61.70;;;;;;5078297;28;20385;-77
2021/06/04 00:43:22;;;;;;;9.02;5.88;;;19.10;61.90;;;;;;5077493;28;20032;-76
2021/06/04 00:45:52;;;;;;;8.02;6.28;;;19.00;62.10;;;;;;5081489;28;20040;-76
2021/06/04 00:48:18;;;;;;;9.13;5.80;;;19.00;62.10;;;;;;5083884;28;20032;-77
2021/06/04 00:50:49;;;;;;;6.53;5.93;;;19.00;62.80;;;;;;5081263;28;20123;-77
2021/06/04 00:53:16;;;;;;;6.70;5.65;;;19.00;62.30;;;;;;5084963;28;20035;-77
2021/06/04 00:55:43;;;;;;;9.38;6.65;;;19.00;62.40;;;;;;5085887;28;20490;-77
2021/06/04 00:58:11;;;;;;;8.93;6.25;;;19.00;62.70;;;;;;5082366;28;20046;-77
2021/06/04 01:00:42;;;;;;;7.93;6.95;;;19.00;62.60;;;;;;5074410;28;20036;-77
2021/06/04 01:03:10;;;;;;;8.40;6.63;;;19.00;62.60;;;;;;5083647;28;20035;-77
2021/06/04 01:05:40;;;;;;;7.80;5.93;;;19.00;62.70;;;;;;5076020;28;20399;-77
2021/06/04 01:08:47;;;;;;;6.28;4.97;;;19.00;62.60;;;;;;5081085;28;20132;-77
2021/06/04 01:11:35;;;;;;;6.63;5.95;;;19.00;62.40;;;;;;5019221;28;20193;-77
2021/06/04 01:14:43;;;;;;;6.68;5.95;;;19.00;62.30;;;;;;5057923;28;20028;-77
2021/06/04 01:17:20;;;;;;;7.07;5.70;;;18.90;62.60;;;;;;4989580;28;20023;-76
2021/06/04 01:19:53;;;;;;;6.68;6.00;;;19.00;62.50;;;;;;5078442;28;20035;-76
2021/06/04 01:22:43;;;;;;;7.65;6.57;;;18.90;62.60;;;;;;5079650;28;20195;-76
2021/06/04 01:25:24;;;;;;;8.55;7.53;;;18.90;62.60;;;;;;5046191;28;20025;-77
2021/06/04 01:27:51;;;;;;;8.88;6.43;;;18.80;62.40;;;;;;5079005;28;20495;-77
2021/06/04 01:30:25;;;;;;;7.25;6.38;;;18.80;62.60;;;;;;5083033;28;20051;-77
2021/06/04 01:32:55;;;;;;;6.10;5.57;;;18.80;62.70;;;;;;5086061;28;20036;-79
2021/06/04 01:35:28;;;;;;;7.47;5.95;;;18.80;62.60;;;;;;5078857;28;20026;-78
2021/06/04 01:37:56;;;;;;;6.97;5.80;;;18.80;62.20;;;;;;5082204;28;20081;-79
2021/06/04 01:40:37;;;;;;;6.60;5.82;;;18.80;62.70;;;;;;5090386;28;20047;-79
2021/06/04 01:43:09;;;;;;;6.28;5.57;;;18.80;62.80;;;;;;5086659;28;20032;-78
2021/06/04 01:45:36;;;;;;;;;;;18.70;63.00;;;;;;5089484;28;20099;-78
2021/06/04 01:48:10;;;;;;;9.38;6.40;;;18.80;63.50;;;;;;5093937;28;19908;-79
2021/06/04 01:50:42;;;;;;;7.43;5.60;;;18.80;63.50;;;;;;5085193;28;20028;-77
2021/06/04 01:53:12;;;;;;;7.53;5.78;;;18.80;63.70;;;;;;5089045;28;20342;-77
2021/06/04 01:55:42;;;;;;;8.82;6.07;;;18.80;63.90;;;;;;5087218;28;20470;-78
2021/06/04 01:58:13;;;;;;;6.57;5.77;;;18.80;63.80;;;;;;5092951;28;20023;-77
2021/06/04 02:00:51;;;;;;;6.68;6.05;;;18.70;63.60;;;;;;5081168;28;20028;-77
2021/06/04 02:03:19;;;;;;;6.65;6.05;;;18.70;64.20;;;;;;5077405;28;20037;-77
2021/06/04 02:05:46;;;;;;;8.88;7.57;;;18.70;64.40;;;;;;5081395;28;20048;-77
2021/06/04 02:08:18;;;;;;;7.05;5.78;;;18.70;64.50;;;;;;5075697;28;20028;-77
2021/06/04 02:10:48;;;;;;;6.32;5.65;;;18.70;64.30;;;;;;5062680;28;20489;-77
2021/06/04 02:13:15;;;;;;;9.82;5.85;;;18.60;64.60;;;;;;5086663;28;20026;-78
2021/06/04 02:15:46;;;;;;;6.35;5.70;;;18.70;64.80;;;;;;5083042;28;20029;-76
2021/06/04 02:18:27;;;;;;;8.40;6.90;;;18.60;65.00;;;;;;5082541;28;20090;-78
2021/06/04 02:21:00;;;;;;;9.68;5.57;;;18.60;65.20;;;;;;5076208;28;20036;-77
2021/06/04 02:24:05;;;;;;;8.98;6.03;;;18.50;65.50;;;;;;5077537;28;20031;-77
2021/06/04 02:26:49;;;;;;;7.43;5.60;;;18.50;65.50;;;;;;5070744;28;20032;-77
2021/06/04 02:29:21;;;;;;;6.25;5.50;;;18.50;65.70;;;;;;5070227;28;20051;-76
2021/06/04 02:32:00;;;;;;;8.75;6.25;;;18.40;65.70;;;;;;5077178;28;20386;-77
2021/06/04 02:34:29;;;;;;;8.65;6.20;;;18.50;65.60;;;;;;5073283;28;20048;-77
2021/06/04 02:37:01;;;;;;;8.38;6.10;;;18.40;65.90;;;;;;5083986;28;20020;-77
2021/06/04 02:39:32;;;;;;;8.48;6.57;;;18.40;65.30;;;;;;5076879;28;20036;-76
2021/06/04 02:42:10;;;;;;;6.10;5.50;;;18.40;65.70;;;;;;5071966;28;20029;-78
2021/06/04 02:45:01;;;;;;;5.72;5.10;;;18.40;66.60;;;;;;5074823;28;20044;-78
2021/06/04 02:47:38;;;;;;;6.73;5.50;;;18.40;65.90;;;;;;5066328;28;20149;-78
2021/06/04 02:50:16;;;;;;;6.00;5.40;;;18.30;65.80;;;;;;5071701;28;20376;-76
2021/06/04 02:52:45;;;;;;;6.05;5.45;;;18.30;66.10;;;;;;5078308;28;20082;-77
2021/06/04 02:55:22;;;;;;;7.22;5.63;;;18.20;65.90;;;;;;5082281;28;20047;-77
2021/06/04 02:57:48;;;;;;;9.95;5.78;;;18.10;66.20;;;;;;5083727;28;20046;-77
2021/06/04 03:00:18;;;;;;;5.82;5.32;;;18.20;66.10;;;;;;5076423;28;20039;-79
2021/06/04 03:02:44;;;;;;;8.55;5.93;;;18.20;66.00;;;;;;5073464;28;20036;-77
2021/06/04 03:05:20;;;;;;;6.75;6.15;;;18.10;66.20;;;;;;5075156;28;20032;-77
2021/06/04 03:07:46;;;;;;;6.97;5.75;;;18.10;66.10;;;;;;5072224;28;20071;-77
2021/06/04 03:10:24;;;;;;;11.38;6.53;;;18.00;66.60;;;;;;5075225;28;20565;-77
2021/06/04 03:12:51;;;;;;;7.10;5.95;;;18.10;66.80;;;;;;5055016;28;20066;-77
2021/06/04 03:15:22;;;;;;;8.93;6.55;;;18.00;66.60;;;;;;5081183;28;20104;-77
2021/06/04 03:17:49;;;;;;;8.40;6.40;;;18.00;67.00;;;;;;5066890;28;20027;-78
2021/06/04 03:20:22;;;;;;;7.38;5.60;;;18.00;67.10;;;;;;5085699;28;20111;-78
2021/06/04 03:22:48;;;;;;;7.88;6.32;;;18.10;67.20;;;;;;5080401;28;20034;-78
2021/06/04 03:25:25;;;;;;;7.47;6.22;;;18.00;67.20;;;;;;5086553;28;20029;-77
2021/06/04 03:27:51;;;;;;;9.07;6.45;;;18.00;67.00;;;;;;5076813;28;20028;-77
2021/06/04 03:30:19;;;;;;;8.48;6.28;;;18.00;67.50;;;;;;5085890;28;20087;-77
2021/06/04 03:32:45;;;;;;;6.72;6.00;;;18.00;67.50;;;;;;5087703;28;20035;-77
2021/06/04 03:35:12;;;;;;;6.75;5.95;;;18.10;67.40;;;;;;5079101;28;20016;-78
2021/06/04 03:37:38;;;;;;;8.07;6.60;;;18.10;67.20;;;;;;5069444;28;20029;-79
2021/06/04 03:40:13;;;;;;;9.82;6.68;;;18.00;67.00;;;;;;5080316;28;20059;-77
2021/06/04 03:42:39;;;;;;;11.02;6.57;;;18.00;67.80;;;;;;5077757;28;20032;-78
2021/06/04 03:45:09;;;;;;;6.70;5.70;;;18.10;67.70;;;;;;5082491;28;20033;-78
2021/06/04 03:47:34;;;;;;;7.65;6.47;;;18.00;67.90;;;;;;5062551;28;20024;-79
2021/06/04 03:50:00;;;;;;;7.47;5.78;;;18.10;67.90;;;;;;5077309;28;20020;-78
2021/06/04 03:52:26;;;;;;;7.72;6.03;;;18.10;67.70;;;;;;5082713;28;20027;-78
2021/06/04 03:54:55;;;;;;;8.05;6.18;;;18.00;68.00;;;;;;5081303;28;20077;-77
2021/06/04 03:57:25;;;;;;;11.50;6.47;;;18.10;67.90;;;;;;5083066;28;20501;-77
2021/06/04 03:59:51;;;;;;;11.60;6.18;;;18.00;67.50;;;;;;5080235;28;20050;-78
2021/06/04 04:02:20;;;;;;;9.30;5.68;;;18.00;68.00;;;;;;5078152;28;20507;-78
2021/06/04 04:04:47;;;;;;;7.03;6.35;;;18.00;67.90;;;;;;5085500;28;20035;-78
2021/06/04 04:07:13;;;;;;;9.40;6.75;;;18.00;68.30;;;;;;5083336;28;20091;-78
2021/06/04 04:09:39;;;;;;;9.02;6.10;;;17.90;68.40;;;;;;5081583;28;20029;-77
2021/06/04 04:12:06;;;;;;;8.20;6.57;;;18.00;68.50;;;;;;5078253;28;20376;-76
2021/06/04 04:14:32;;;;;;;8.68;6.70;;;18.10;68.70;;;;;;5086050;28;20028;-78
2021/06/04 04:16:57;;;;;;;8.18;6.43;;;18.10;68.70;;;;;;5086731;28;20474;-80
2021/06/04 04:19:24;;;;;;;6.80;6.10;;;18.10;68.60;;;;;;5091986;28;20024;-77
2021/06/04 04:21:53;;;;;;;11.00;6.53;;;18.20;68.60;;;;;;5094805;28;20462;-77
2021/06/04 04:24:27;;;;;;;8.07;6.15;;;18.10;68.90;;;;;;5091196;28;20037;-78
2021/06/04 04:26:53;;;;;;;7.55;6.60;;;18.20;69.10;;;;;;5088519;28;20025;-79
2021/06/04 04:29:19;;;;;;;8.13;6.10;;;18.10;69.90;;;;;;5088423;28;20036;-79
2021/06/04 04:31:50;;;;;;;8.50;6.15;;;18.20;70.40;;;;;;5093693;28;20112;-79
2021/06/04 04:34:16;;;;;;;11.50;6.43;;;18.20;70.20;;;;;;5077872;28;20087;-79
2021/06/04 04:36:55;;;;;;;11.18;6.10;;;18.20;69.50;;;;;;5079143;28;20111;-77
2021/06/04 04:39:24;;;;;;;6.80;6.10;;;18.20;68.20;;;;;;5079026;28;20170;-76
2021/06/04 04:41:51;;;;;;;9.98;7.40;;;18.20;69.10;;;;;;5077944;28;20077;-76
2021/06/04 04:44:20;;;;;;;8.90;7.30;;;18.30;68.90;;;;;;5079505;28;20029;-78
2021/06/04 04:46:46;;;;;;;8.23;6.70;;;18.20;69.20;;;;;;5078961;28;20108;-77
2021/06/04 04:49:12;;;;;;;8.40;6.07;;;18.20;69.20;;;;;;5079013;28;20020;-77
2021/06/04 04:51:39;;;;;;;10.02;8.00;;;18.10;69.50;;;;;;5077390;28;20027;-76
2021/06/04 04:54:06;;;;;;;8.52;7.03;;;18.10;69.50;;;;;;5079839;28;20024;-76
2021/06/04 04:56:33;;;;;;;10.32;6.93;;;18.10;70.10;;;;;;5087369;28;20020;-76
2021/06/04 04:58:58;;;;;;;8.48;7.55;;;18.10;69.90;;;;;;5072378;28;20085;-76
2021/06/04 05:01:24;;;;;;;9.52;6.22;;;;;;;;;;5052748;28;20032;-79
2021/06/04 05:03:55;;;;;;;6.50;5.55;;;18.10;69.60;;;;;;5073563;28;20382;-78
2021/06/04 05:06:21;;;;;;;;;;;18.10;69.30;;;;;;5076851;28;20024;-78
2021/06/04 05:08:47;;;;;;;10.20;6.97;;;18.10;70.10;;;;;;5079666;28;19908;-78
2021/06/04 05:11:13;;;;;;;8.15;6.60;;;18.10;70.00;;;;;;5069483;28;20151;-78
2021/06/04 05:13:39;;;;;;;9.20;5.85;;;18.00;70.30;;;;;;5057720;28;20395;-77
2021/06/04 05:16:09;;;;;;;7.78;6.95;;;18.00;70.10;;;;;;5082630;28;20020;-79
2021/06/04 05:18:36;;;;;;;8.07;6.70;;;18.10;70.90;;;;;;5070449;28;20054;-78
2021/06/04 05:21:04;;;;;;;11.75;8.52;;;18.10;70.20;;;;;;5060898;28;20033;-79
2021/06/04 05:23:34;;;;;;;8.10;6.75;;;18.20;70.70;;;;;;5075947;28;20543;-78
2021/06/04 05:26:00;;;;;;;8.98;6.85;;;18.30;70.60;;;;;;5075616;28;20075;-78
2021/06/04 05:28:27;;;;;;;10.88;6.55;;;18.30;71.20;;;;;;5074896;28;20031;-78
2021/06/04 05:31:01;;;;;;;11.82;8.35;;;18.20;73.20;;;;;;5088190;28;20055;-80
2021/06/04 05:33:32;;;;;;;11.40;7.55;;;18.10;76.20;;;;;;5092519;28;20627;-76
2021/06/04 05:36:03;;;;;;;12.82;8.18;;;17.60;79.90;;;;;;5075646;28;20075;-76
2021/06/04 05:38:29;;;;;;;10.63;7.18;;;17.40;83.60;;;;;;5080044;28;20043;-76
2021/06/04 05:40:55;;;;;;;9.75;7.82;;;17.30;84.70;;;;;;5075297;28;20033;-74
2021/06/04 05:43:27;;;;;;;8.15;7.05;;;16.90;92.20;;;;;;5076096;28;20036;-77
2021/06/04 05:45:58;;;;;;;13.52;7.90;;;16.90;92.50;;;;;;5072994;28;20031;-76
2021/06/04 05:48:24;;;;;;;11.68;10.20;;;16.80;98.00;;;;;;5080192;28;20102;-76
2021/06/04 05:50:53;;;;;;;12.57;8.45;;;16.80;99.90;;;;;;5088384;28;20055;-76
2021/06/04 05:53:33;;;;;;;10.30;8.93;;;16.80;99.90;;;;;;5085222;28;20021;-76
2021/06/04 05:56:01;;;;;;;11.95;8.80;;;16.90;99.90;;;;;;5080296;28;20024;-76
2021/06/04 05:58:28;;;;;;;11.45;9.05;;;16.80;99.90;;;;;;5088550;28;20517;-76
2021/06/04 06:00:57;;;;;;;11.73;10.13;;;16.80;99.90;;;;;;5086329;28;20453;-77
2021/06/04 06:03:29;;;;;;;11.18;9.23;;;16.80;99.90;;;;;;5082890;28;20032;-75
2021/06/04 06:05:56;;;;;;;11.70;10.23;;;16.80;99.90;;;;;;5089405;28;20024;-74
2021/06/04 06:08:22;;;;;;;13.07;9.27;;;16.80;99.90;;;;;;5090103;28;20028;-75
2021/06/04 06:10:48;;;;;;;11.05;9.27;;;16.70;99.90;;;;;;5073195;28;20036;-74
2021/06/04 06:13:14;;;;;;;9.32;8.40;;;16.70;99.90;;;;;;5077643;28;20111;-75
2021/06/04 06:15:43;;;;;;;9.52;8.35;;;16.70;99.90;;;;;;5086692;28;20025;-74
2021/06/04 06:18:10;;;;;;;10.98;9.85;;;16.70;99.90;;;;;;5089550;28;20016;-74
2021/06/04 06:20:43;;;;;;;9.13;8.00;;;16.70;99.90;;;;;;5094522;28;20028;-75
2021/06/04 06:23:09;;;;;;;10.25;9.27;;;16.80;99.90;;;;;;5087523;28;20028;-76
2021/06/04 06:25:42;;;;;;;10.48;8.88;;;16.80;99.90;;;;;;5087731;28;20054;-74
2021/06/04 06:28:11;;;;;;;9.65;8.73;;;16.80;99.90;;;;;;5089004;28;20047;-76
2021/06/04 06:30:37;;;;;;;12.23;9.20;;;16.80;99.90;;;;;;5096048;28;20032;-75
2021/06/04 06:33:03;;;;;;;9.85;8.15;;;16.80;99.90;;;;;;5098488;28;20046;-74
2021/06/04 06:35:52;;;;;;;11.27;10.07;;;16.80;99.90;;;;;;5093393;28;20097;-74
2021/06/04 06:38:19;;;;;;;10.77;8.60;;;16.80;99.90;;;;;;5085135;28;20036;-74
2021/06/04 06:40:47;;;;;;;11.10;8.88;;;17.00;99.90;;;;;;5086667;28;20056;-75
2021/06/04 06:43:14;;;;;;;9.73;8.70;;;17.00;99.90;;;;;;5089014;28;20024;-75
2021/06/04 06:45:41;;;;;;;10.68;9.02;;;17.00;99.90;;;;;;5087021;28;20036;-75
2021/06/04 06:48:07;;;;;;;12.93;8.70;;;17.10;99.90;;;;;;5103935;28;20157;-76
2021/06/04 06:50:34;;;;;;;9.52;8.52;;;17.20;99.90;;;;;;5103733;28;20031;-78
2021/06/04 06:53:03;;;;;;;13.35;8.45;;;17.30;99.90;;;;;;5103349;28;20108;-75
2021/06/04 06:55:30;;;;;;;11.52;8.90;;;17.60;99.90;;;;;;5096526;28;20140;-81
2021/06/04 06:57:56;;;;;;;15.75;11.63;;;17.50;99.90;;;;;;5099560;28;20119;-74
2021/06/04 07:00:29;;;;;;;12.07;8.05;;;17.50;99.90;;;;;;5090453;28;20020;-75
2021/06/04 07:02:55;;;;;;;11.60;8.60;;;17.50;99.90;;;;;;5087484;28;20107;-76
2021/06/04 07:05:21;;;;;;;9.77;8.70;;;17.40;99.90;;;;;;5098039;28;20047;-75
2021/06/04 07:07:47;;;;;;;14.95;8.93;;;17.40;99.90;;;;;;5098274;28;20130;-75
2021/06/04 07:10:16;;;;;;;12.48;8.60;;;17.50;99.90;;;;;;5072889;28;20031;-75
2021/06/04 07:12:41;;;;;;;15.85;9.57;;;17.70;99.90;;;;;;5095052;28;20020;-75
2021/06/04 07:15:10;;;;;;;12.95;8.00;;;17.70;99.90;;;;;;5074417;28;20020;-75
2021/06/04 07:17:36;;;;;;;11.02;8.48;;;17.70;99.90;;;;;;5088583;28;20043;-76
2021/06/04 07:20:02;;;;;;;13.27;8.95;;;17.70;99.90;;;;;;5099686;28;20024;-79
2021/06/04 07:22:31;;;;;;;15.18;10.18;;;17.80;99.90;;;;;;5096519;28;20030;-77
2021/06/04 07:24:56;;;;;;;306.98;241.60;;;18.00;99.90;;;;;;5081679;28;20024;-77
2021/06/04 07:27:22;;;;;;;13.20;8.50;;;18.10;99.90;;;;;;5091926;28;20036;-75
2021/06/04 07:29:48;;;;;;;9.82;8.07;;;;;;;;;;5098299;28;20166;-77
2021/06/04 07:32:14;;;;;;;14.68;8.35;;;18.10;99.90;;;;;;5098210;28;20024;-75
2021/06/04 07:34:39;;;;;;;9.80;7.78;;;18.20;99.90;;;;;;5096083;28;20020;-75
2021/06/04 07:37:05;;;;;;;10.40;8.40;;;18.20;99.90;;;;;;5097200;28;20024;-76
2021/06/04 07:39:34;;;;;;;13.95;8.55;;;18.10;99.90;;;;;;5098958;28;20048;-76
2021/06/04 07:42:01;;;;;;;11.02;8.05;;;18.10;99.90;;;;;;5098085;28;20489;-77
2021/06/04 07:44:27;;;;;;;11.18;8.40;;;18.20;99.90;;;;;;5096296;28;20046;-79
2021/06/04 07:46:55;;;;;;;10.07;7.53;;;18.20;99.90;;;;;;5093688;28;20071;-77
2021/06/04 07:49:22;;;;;;;10.32;7.57;;;18.20;99.90;;;;;;5091927;28;20111;-76
2021/06/04 07:51:50;;;;;;;12.18;8.38;;;18.40;99.90;;;;;;5094277;28;20099;-75
2021/06/04 07:54:19;;;;;;;9.30;8.25;;;18.50;99.90;;;;;;5091503;28;20028;-77
2021/06/04 07:56:45;;;;;;;10.13;7.88;;;18.60;99.90;;;;;;5094375;28;20103;-75
2021/06/04 07:59:11;;;;;;;8.90;8.00;;;18.70;99.90;;;;;;5089188;28;20099;-78
2021/06/04 08:01:39;;;;;;;10.95;8.40;;;18.70;99.90;;;;;;5085623;28;20020;-75
2021/06/04 08:04:05;;;;;;;11.60;9.25;;;18.50;99.90;;;;;;5088440;28;20020;-76
2021/06/04 08:06:30;;;;;;;11.65;9.65;;;18.50;99.90;;;;;;5090608;28;20036;-75
2021/06/04 08:08:56;;;;;;;14.57;9.32;;;18.30;99.90;;;;;;5091776;28;20084;-75
2021/06/04 08:11:27;;;;;;;10.60;8.65;;;18.40;99.90;;;;;;5085647;28;20032;-76
2021/06/04 08:13:55;;;;;;;13.93;9.15;;;18.50;99.90;;;;;;5093871;28;20031;-77
2021/06/04 08:16:20;;;;;;;12.23;10.23;;;18.50;99.90;;;;;;5094932;28;20044;-78
2021/06/04 08:18:46;;;;;;;9.65;8.65;;;18.50;99.90;;;;;;5093411;28;20028;-79
2021/06/04 08:21:17;;;;;;;10.25;8.10;;;18.50;99.90;;;;;;5095296;28;20241;-77
2021/06/04 08:23:44;;;;;;;11.32;8.10;;;18.70;99.90;;;;;;5095289;28;20031;-78
2021/06/04 08:26:14;;;;;;;11.82;8.95;;;18.70;99.90;;;;;;5091600;28;20520;-77
2021/06/04 08:28:40;;;;;;;16.40;9.52;;;18.80;99.90;;;;;;5073599;28;20024;-77
2021/06/04 08:31:07;;;;;;;16.00;8.80;;;18.90;99.90;;;;;;5091314;28;20396;-76
2021/06/04 08:33:36;;;;;;;14.25;10.25;;;19.20;99.90;;;;;;5092837;28;20106;-75
2021/06/04 08:36:05;;;;;;;12.43;9.77;;;19.40;99.90;;;;;;5089490;28;20028;-76
2021/06/04 08:38:32;;;;;;;14.45;8.82;;;19.30;99.90;;;;;;5091758;28;20040;-76
2021/06/04 08:41:10;;;;;;;9.85;8.77;;;19.20;99.90;;;;;;5091505;28;20066;-76
2021/06/04 08:44:40;;;;;;;9.60;8.60;;;19.40;99.10;;;;;;5075153;28;20038;-77
2021/06/04 08:47:21;;;;;;;11.60;8.48;;;19.60;98.80;;;;;;4989202;28;20040;-76
2021/06/04 08:50:10;;;;;;;9.07;7.25;;;19.60;98.70;;;;;;5002858;28;20053;-76
2021/06/04 08:52:55;;;;;;;8.90;8.10;;;19.60;98.80;;;;;;5060869;28;20055;-77
2021/06/04 08:55:55;;;;;;;9.07;8.13;;;19.70;97.90;;;;;;5081432;28;20026;-81
2021/06/04 08:58:42;;;;;;;11.85;7.28;;;19.70;97.40;;;;;;5093611;28;20085;-77
2021/06/04 09:01:18;;;;;;;10.05;8.10;;;19.60;97.80;;;;;;5080753;28;20038;-75
2021/06/04 09:03:55;;;;;;;9.45;7.38;;;19.60;98.00;;;;;;5099238;28;20043;-76
2021/06/04 09:06:47;;;;;;;9.10;7.20;;;19.60;97.70;;;;;;5102950;28;20028;-75
2021/06/04 09:09:24;;;;;;;12.70;8.45;;;19.40;97.80;;;;;;5099324;28;20036;-75
2021/06/04 09:11:59;;;;;;;10.70;8.13;;;19.20;98.20;;;;;;5077613;28;20024;-76
2021/06/04 09:14:25;;;;;;;10.40;8.43;;;19.00;98.70;;;;;;5101255;28;20028;-75
2021/06/04 09:17:09;;;;;;;8.43;7.63;;;18.90;99.20;;;;;;5100124;28;20024;-75
2021/06/04 09:19:41;;;;;;;10.98;7.45;;;19.00;99.30;;;;;;5088953;28;20031;-76
2021/06/04 09:22:09;;;;;;;12.07;9.20;;;19.00;99.50;;;;;;5092495;28;20020;-75
2021/06/04 09:24:40;;;;;;;10.65;8.60;;;19.10;99.50;;;;;;5099295;28;20020;-75
2021/06/04 09:27:21;;;;;;;10.20;9.02;;;19.30;99.40;;;;;;5088064;28;20020;-75
2021/06/04 09:30:20;;;;;;;14.02;7.85;;;19.30;99.10;;;;;;5091327;28;20036;-75
2021/06/04 09:33:12;;;;;;;12.80;7.30;;;19.50;99.00;;;;;;5084626;28;20020;-75
2021/06/04 09:35:52;;;;;;;15.13;8.70;;;19.50;98.50;;;;;;5087712;28;20027;-78
2021/06/04 09:38:33;;;;;;;10.07;8.50;;;19.60;98.50;;;;;;5084906;28;20024;-76
2021/06/04 09:41:16;;;;;;;;;;;19.60;98.60;;;;;;5090375;28;20024;-78
2021/06/04 09:43:42;;;;;;;11.82;8.68;;;19.60;98.80;;;;;;5085709;28;19915;-76
2021/06/04 09:46:11;;;;;;;9.70;8.52;;;19.60;98.60;;;;;;5075549;28;20042;-75
2021/06/04 09:48:53;;;;;;;11.48;7.47;;;19.50;98.70;;;;;;5085946;28;20547;-75
2021/06/04 09:51:27;;;;;;;10.90;7.95;;;19.60;98.30;;;;;;5081603;28;20028;-76
2021/06/04 09:53:54;;;;;;;8.07;7.22;;;19.60;97.90;;;;;;5088368;28;20020;-76
2021/06/04 09:56:29;;;;;;;9.55;8.50;;;19.60;98.00;;;;;;5088396;28;20016;-75
2021/06/04 09:58:57;;;;;;;11.50;9.13;;;19.70;97.80;;;;;;5090712;28;20028;-76
2021/06/04 10:01:26;;;;;;;14.27;9.40;;;19.70;98.00;;;;;;5079157;28;20503;-76
2021/06/04 10:04:03;;;;;;;14.32;8.95;;;19.80;98.10;;;;;;5085620;28;20066;-76
2021/06/04 10:06:44;;;;;;;11.70;8.82;;;19.90;98.00;;;;;;5085804;28;20066;-76
2021/06/04 10:09:29;;;;;;;10.23;9.15;;;19.90;97.90;;;;;;5081523;28;20036;-75
2021/06/04 10:12:02;;;;;;;8.23;7.45;;;19.90;97.30;;;;;;5085137;28;20035;-76
2021/06/04 10:14:43;;;;;;;11.57;9.15;;;19.90;97.40;;;;;;5089936;28;20086;-76
2021/06/04 10:19:49;;;;;;;10.55;7.40;;;19.90;97.90;;;;;;5088331;28;19908;-75
2021/06/04 10:22:28;;;;;;;8.57;7.57;;;20.00;97.20;;;;;;5089899;28;20044;-76
2021/06/04 10:24:59;;;;;;;11.48;8.13;;;20.20;96.70;;;;;;5083884;28;20623;-76
2021/06/04 10:27:28;;;;;;;14.93;8.27;;;20.40;96.20;;;;;;5084906;28;20463;-77
2021/06/04 10:30:07;;;;;;;9.52;7.75;;;20.50;96.10;;;;;;5074825;28;20051;-77
2021/06/04 10:32:44;;;;;;;10.40;7.40;;;21.00;94.70;;;;;;5077202;28;20118;-75
2021/06/04 10:35:30;;;;;;;16.25;8.32;;;21.20;94.70;;;;;;5070833;28;20391;-75
2021/06/04 10:38:27;;;;;;;9.73;7.78;;;21.20;95.00;;;;;;5075294;28;20514;-76
2021/06/04 10:41:06;;;;;;;8.60;7.00;;;21.20;95.10;;;;;;5074198;28;20703;-77
2021/06/04 10:44:00;;;;;;;8.52;6.60;;;21.70;94.30;;;;;;5086951;28;20226;-77
2021/06/04 10:46:39;;;;;;;9.98;6.80;;;21.90;93.20;;;;;;5082390;28;20028;-77
2021/06/04 10:49:11;;;;;;;11.57;9.10;;;21.70;93.50;;;;;;5090895;28;20442;-75
2021/06/04 10:51:36;;;;;;;10.07;7.18;;;21.90;93.30;;;;;;5087810;28;20470;-75
2021/06/04 10:54:19;;;;;;;9.38;6.82;;;22.10;92.70;;;;;;5088748;28;20055;-75
2021/06/04 10:57:00;;;;;;;8.80;7.43;;;22.40;92.10;;;;;;5081045;28;20024;-75
2021/06/04 10:59:44;;;;;;;9.52;6.40;;;22.60;91.60;;;;;;5089960;28;20575;-75
2021/06/04 11:02:33;;;;;;;9.57;6.60;;;22.60;91.20;;;;;;5080906;28;20038;-75
2021/06/04 11:05:24;;;;;;;8.98;7.15;;;22.90;90.80;;;;;;5084369;28;20109;-76
2021/06/04 11:08:30;;;;;;;10.15;7.78;;;22.90;90.70;;;;;;5088021;28;20054;-76
2021/06/04 11:11:25;;;;;;;8.43;6.40;;;23.40;88.40;;;;;;5085251;28;20509;-75
2021/06/04 11:14:11;;;;;;;10.00;6.28;;;23.50;88.40;;;;;;5088431;28;20099;-76
2021/06/04 11:16:45;;;;;;;6.13;5.53;;;23.90;84.80;;;;;;5089328;28;20641;-76
2021/06/04 11:19:37;;;;;;;5.50;4.80;;;23.90;81.40;;;;;;5082820;28;20093;-74
2021/06/04 11:22:16;;;;;;;6.63;5.40;;;23.80;80.70;;;;;;5090469;28;20031;-73
2021/06/04 11:24:49;;;;;;;7.60;5.75;;;24.10;80.50;;;;;;5078272;28;20032;-74
2021/06/04 11:27:27;;;;;;;7.22;5.75;;;24.20;80.60;;;;;;5082728;28;20024;-76
2021/06/04 11:29:54;;;;;;;9.05;5.38;;;26.60;70.60;;;;;;5081764;28;20036;-75
2021/06/04 11:32:22;;;;;;;6.80;6.03;;;26.70;71.00;;;;;;5089025;28;20074;-75
2021/06/04 11:34:53;;;;;;;8.45;5.90;;;27.50;68.20;;;;;;5084162;28;20032;-74
2021/06/04 11:37:35;;;;;;;6.70;5.63;;;28.00;66.30;;;;;;5089352;28;20115;-76
2021/06/04 11:40:11;;;;;;;7.22;6.20;;;27.80;64.70;;;;;;5089230;28;20493;-76
2021/06/04 11:42:48;;;;;;;8.02;7.22;;;27.50;65.10;;;;;;5090147;28;20031;-76
2021/06/04 11:45:17;;;;;;;7.78;6.75;;;26.70;63.90;;;;;;5079301;28;20057;-75
2021/06/04 11:47:43;;;;;;;8.68;6.55;;;26.10;65.70;;;;;;5079038;28;20489;-75
2021/06/04 11:50:33;;;;;;;7.60;6.80;;;25.80;66.40;;;;;;5074372;28;20081;-75
2021/06/04 11:53:31;;;;;;;;;;;25.70;68.30;;;;;;5070449;28;20060;-75
2021/06/04 11:55:57;;;;;;;9.77;7.13;;;26.10;65.70;;;;;;5048074;28;19940;-74
2021/06/04 11:58:29;;;;;;;8.82;7.43;;;26.00;66.30;;;;;;5081061;28;20035;-75
2021/06/04 12:01:16;;;;;;;10.20;6.78;;;25.70;66.90;;;;;;5083244;28;20110;-74
2021/06/04 12:04:06;;;;;;;7.47;6.72;;;25.20;68.30;;;;;;5062134;28;21209;-74
2021/06/04 12:06:53;;;;;;;8.50;7.45;;;25.00;68.60;;;;;;5078875;28;20029;-74
2021/06/04 12:09:40;;;;;;;8.18;7.10;;;24.90;69.30;;;;;;5085346;28;20028;-74
2021/06/04 12:12:20;;;;;;;7.43;6.70;;;24.80;69.00;;;;;;5090053;28;20502;-75
2021/06/04 12:14:54;;;;;;;7.65;6.93;;;24.60;69.40;;;;;;5079254;28;20117;-75
2021/06/04 12:17:29;;;;;;;8.73;7.55;;;24.30;70.10;;;;;;5085892;28;20099;-75
2021/06/04 12:20:20;;;;;;;11.40;7.22;;;24.60;70.00;;;;;;5078708;28;20024;-75
2021/06/04 12:22:51;;;;;;;6.68;6.07;;;24.60;70.70;;;;;;5085569;28;20056;-75
2021/06/04 12:25:42;;;;;;;9.50;8.05;;;24.90;69.30;;;;;;5091943;28;20390;-74
2021/06/04 12:28:10;;;;;;;9.63;7.95;;;24.80;69.30;;;;;;5094477;28;20081;-74
2021/06/04 12:30:59;;;;;;;10.50;8.90;;;24.80;69.40;;;;;;5093112;28;20036;-74
2021/06/04 12:33:38;;;;;;;7.75;6.95;;;24.90;69.30;;;;;;5090525;28;20701;-76
2021/06/04 12:36:34;;;;;;;7.47;5.97;;;26.00;67.50;;;;;;5092723;28;20052;-76
2021/06/04 12:39:28;;;;;;;7.47;6.32;;;27.40;64.30;;;;;;5088321;28;20437;-74
2021/06/04 12:42:17;;;;;;;7.32;6.60;;;28.00;62.70;;;;;;5093560;28;20039;-76
2021/06/04 12:45:28;;;;;;;6.70;6.00;;;28.70;60.20;;;;;;5087343;28;20027;-75
2021/06/04 12:48:25;;;;;;;7.13;6.07;;;29.60;58.40;;;;;;5085342;28;20036;-75
2021/06/04 12:50:57;;;;;;;6.63;5.53;;;29.80;57.70;;;;;;5049444;28;20054;-75
2021/06/04 12:53:36;;;;;;;7.65;6.32;;;29.50;56.90;;;;;;5093134;28;20150;-76
2021/06/04 12:56:09;;;;;;;8.13;7.40;;;29.00;57.30;;;;;;5092816;28;20526;-75
2021/06/04 12:58:46;;;;;;;20.13;18.05;;;27.60;58.80;;;;;;5092884;28;20053;-75
2021/06/04 13:01:24;;;;;;;8.02;7.22;;;27.50;59.30;;;;;;5092429;28;20020;-75
2021/06/04 13:04:12;;;;;;;7.63;6.72;;;27.30;59.40;;;;;;5087050;28;20032;-75
2021/06/04 13:06:40;;;;;;;8.95;8.05;;;26.90;60.20;;;;;;5090929;28;20038;-75
2021/06/04 13:09:23;;;;;;;10.13;7.35;;;26.50;60.40;;;;;;5092365;28;20024;-76
2021/06/04 13:11:49;;;;;;;8.23;6.53;;;26.10;61.00;;;;;;5085886;28;20375;-76
2021/06/04 13:14:23;;;;;;;8.07;6.38;;;25.70;62.10;;;;;;5093509;28;20031;-74
2021/06/04 13:16:50;;;;;;;9.43;6.95;;;25.80;61.40;;;;;;5088453;28;20432;-75
2021/06/04 13:19:21;;;;;;;8.90;6.50;;;25.70;61.90;;;;;;5093424;28;20028;-75